• Join FlightAware (Why Join?)
  • Login
  • US Flag 
01:11AM EDT


 

Airport Tracker/Info


-or-


 

Live Flight TrackerFlight Track Log ✈ SKW6492 ✈ 09-May-2013 ✈ KDEN - KCOD

Flight Track Log - Related Links

Times and Time Zones

All times are in EDT time to prevent confusion due to time zone crossing. See the SKW6492 flight status page for this flight to view local times or setup timezone preferences in your user account.

Time Position Orientation Groundspeed Altitude Reporting Facility
EDT Latitude Longitude Course Direction KTS MPH feet Rate Location/Type
09:41PM 39.8500 -104.7667 346° North 188 216 6,800  Level Denver TRACON
09:42PM 39.8667 -104.8167 293° West 234 269 8,700 2,100 Climbing Denver TRACON
09:42PM 39.8853 -104.8500 306° West 239 275 9,400 1,860 Climbing Denver Center
09:43PM 39.9469 -104.9247 317° Northwest 292 336 11,400 2,220 Climbing Denver Center
09:44PM 40.2560 -104.7984 347° North  Level FlightAware Approximate
09:44PM 40.0308 -104.8994 13° North 311 358 14,000  Level Denver Center
09:45PM 40.3578 -104.8304 346° North  Level FlightAware Approximate
09:46PM 40.4594 -104.8642 346° North  Level FlightAware Approximate
09:46PM 40.1161 -104.8900 North 313 360 15,800  Level Denver Center
09:47PM 40.2181 -104.8847 North 336 387 17,500 1,320 Climbing Denver Center
09:48PM 40.3133 -104.8811 North 343 395 18,600 1,380 Climbing Denver Center
09:49PM 40.4217 -104.8733 North 360 414 20,400 1,740 Climbing Denver Center
09:50PM 40.5183 -104.8686 North 349 402 22,300 1,560 Climbing Denver Center
09:51PM 40.6275 -104.8622 North 353 406 23,700 1,140 Climbing Denver Center
09:52PM 40.7247 -104.8583 North 354 407 25,000 1,080 Climbing Denver Center
09:53PM 40.8497 -104.8822 352° North 380 437 26,300 960 Climbing Denver Center
09:54PM 40.9436 -104.9281 340° North 374 430 27,100 720 Climbing Denver Center
09:55PM 41.0578 -104.9842 340° North 387 445 27,900 840 Climbing Denver Center
09:56PM 41.1558 -105.0317 340° North 391 450 28,900 960 Climbing Denver Center
09:57PM 41.2706 -105.0900 339° North 395 455 30,000 900 Climbing Denver Center
09:58PM 41.3686 -105.1383 340° North 392 451 30,800 780 Climbing Denver Center
09:59PM 41.4661 -105.1869 340° North 391 450 31,700 720 Climbing Denver Center
10:00PM 41.5781 -105.2486 338° Northwest 391 450 32,300 600 Climbing Denver Center
10:01PM 41.6569 -105.3369 320° Northwest 383 441 33,000 720 Climbing Denver Center
10:02PM 41.7533 -105.4414 321° Northwest 393 452 33,900 480 Climbing Denver Center
10:03PM 41.8336 -105.5278 321° Northwest 389 448 34,000  Climbing Denver Center
10:04PM 41.9294 -105.6319 321° Northwest 392 451 34,000  Level Denver Center
10:05PM 42.0133 -105.7247 321° Northwest 399 459 34,000  Level Denver Center
10:06PM 42.1103 -105.8317 321° Northwest 402 463 34,000  Level Denver Center
10:07PM 42.1956 -105.9256 321° Northwest 410 472 34,000  Level Denver Center
10:08PM 42.2953 -106.0356 321° Northwest 413 475 34,000  Level Denver Center
10:09PM 42.3667 -106.1136 321° Northwest 414 476 34,000  Level Denver Center
10:11PM 42.4661 -106.2247 321° Northwest 414 476 34,000  Level Denver Center
10:12PM 42.5664 -106.3356 321° Northwest 414 476 34,000  Level Denver Center
10:13PM 42.6486 -106.4308 320° Northwest 410 472 34,000  Level Denver Center
10:14PM 42.7469 -106.5425 320° Northwest 411 473 34,000  Level Denver Center
10:15PM 42.8322 -106.6383 321° Northwest 413 475 34,000  Level Denver Center
10:16PM 42.9031 -106.7181 321° Northwest 413 475 34,000  Level Denver Center
10:17PM 43.0019 -106.8322 320° Northwest 416 479 34,000  Level Denver Center
10:18PM 43.1014 -106.9442 321° Northwest 415 478 34,000  Level Denver Center
10:18PM 43.1403 -106.9914 318° Northwest 415 478 34,000  Level Salt Lake Center
10:19PM 43.2414 -107.1044 321° Northwest 419 482 34,000  Level Salt Lake Center
10:20PM 43.2992 -107.1697 321° Northwest 419 482 34,000  Level Denver Center
10:21PM 43.3858 -107.2692 320° Northwest 422 486 34,000  Level Denver Center
10:21PM 43.4281 -107.3189 319° Northwest 419 482 34,000 -1,020 Level Salt Lake Center
10:22PM 43.5147 -107.4178 320° Northwest 422 486 32,600 -1,800 Descending Salt Lake Center
10:23PM 43.6019 -107.5194 320° Northwest 425 489 30,400 -2,220 Descending Salt Lake Center
10:24PM 43.6964 -107.6281 320° Northwest 397 457 28,100 -2,040 Descending Salt Lake Center
10:25PM 43.7789 -107.7228 320° Northwest 400 460 26,300 -1,920 Descending Salt Lake Center
10:26PM 43.8772 -107.8392 320° Northwest 414 476 24,200 -1,980 Descending Salt Lake Center
10:27PM 43.9597 -107.9367 320° Northwest 407 468 22,300 -1,980 Descending Salt Lake Center
10:28PM 44.0572 -108.0514 320° Northwest 409 471 20,200 -1,920 Descending Salt Lake Center
10:30PM 44.1378 -108.1478 319° Northwest 403 464 18,400 -1,740 Descending Salt Lake Center
10:31PM 44.2194 -108.2439 320° Northwest 401 461 16,700 -1,860 Descending Salt Lake Center
10:32PM 44.3128 -108.3558 319° Northwest 398 458 14,600 -1,920 Descending Salt Lake Center
10:33PM 44.3908 -108.4503 319° Northwest 392 451 12,800 -1,920 Descending Salt Lake Center
10:34PM 44.4778 -108.5525 320° Northwest 379 436 10,600 -1,380 Descending Salt Lake Center
10:35PM 44.5394 -108.6281 319° Northwest 339 390 10,000 -660 Descending Salt Lake Center
10:36PM 44.6039 -108.7028 320° Northwest 289 333 9,300 -1,020 Descending Salt Lake Center
10:37PM 44.6414 -108.7803 304° West 275 316 8,000 -780 Descending Salt Lake Center
10:38PM 44.6167 -108.8536 245° Southwest 236 272 7,800 -480 Descending Salt Lake Center
10:39PM 44.5853 -108.9100 232° Southwest 187 215 7,100 -720 Descending Salt Lake Center